sensor_id;sensor_type;location;lat;lon;timestamp;noise_LAeq;noise_LA_min;noise_LA_max;noise_LA01;noise_LA95
42701;Laerm;28316;49.504;8.526;2023-07-31T00:00:33;41.06;39.34;43.39;;
42701;Laerm;28316;49.504;8.526;2023-07-31T00:02:59;41.12;39.08;45.54;;
42701;Laerm;28316;49.504;8.526;2023-07-31T00:05:25;41.10;39.08;42.47;;
42701;Laerm;28316;49.504;8.526;2023-07-31T00:07:51;41.11;39.21;43.94;;
42701;Laerm;28316;49.504;8.526;2023-07-31T00:10:17;41.09;39.08;42.53;;
42701;Laerm;28316;49.504;8.526;2023-07-31T00:12:44;41.18;39.08;47.90;;
42701;Laerm;28316;49.504;8.526;2023-07-31T00:15:11;41.12;39.46;43.24;;
42701;Laerm;28316;49.504;8.526;2023-07-31T00:17:37;41.30;39.21;56.15;;
42701;Laerm;28316;49.504;8.526;2023-07-31T00:20:03;41.61;39.46;54.17;;
42701;Laerm;28316;49.504;8.526;2023-07-31T00:22:29;41.16;39.34;44.11;;
42701;Laerm;28316;49.504;8.526;2023-07-31T00:24:56;41.17;39.08;44.94;;
42701;Laerm;28316;49.504;8.526;2023-07-31T00:27:22;41.16;39.46;42.59;;
42701;Laerm;28316;49.504;8.526;2023-07-31T00:29:48;41.19;39.21;44.80;;
42701;Laerm;28316;49.504;8.526;2023-07-31T00:32:14;41.43;39.46;57.41;;
42701;Laerm;28316;49.504;8.526;2023-07-31T00:34:39;41.26;39.35;48.81;;
42701;Laerm;28316;49.504;8.526;2023-07-31T00:37:05;41.22;39.46;45.48;;
42701;Laerm;28316;49.504;8.526;2023-07-31T00:39:33;41.17;39.34;42.98;;
42701;Laerm;28316;49.504;8.526;2023-07-31T00:41:59;41.18;39.58;42.79;;
42701;Laerm;28316;49.504;8.526;2023-07-31T00:44:25;41.45;39.34;53.00;;
42701;Laerm;28316;49.504;8.526;2023-07-31T00:46:50;41.39;38.95;50.81;;
42701;Laerm;28316;49.504;8.526;2023-07-31T00:49:16;41.23;39.21;44.76;;
42701;Laerm;28316;49.504;8.526;2023-07-31T00:51:42;41.23;39.46;44.43;;
42701;Laerm;28316;49.504;8.526;2023-07-31T00:54:08;41.22;39.70;43.19;;
42701;Laerm;28316;49.504;8.526;2023-07-31T00:56:34;41.33;39.46;50.84;;
42701;Laerm;28316;49.504;8.526;2023-07-31T00:59:00;41.27;39.58;52.95;;
42701;Laerm;28316;49.504;8.526;2023-07-31T01:01:26;41.24;39.08;42.76;;
42701;Laerm;28316;49.504;8.526;2023-07-31T01:03:53;41.37;39.58;45.20;;
42701;Laerm;28316;49.504;8.526;2023-07-31T01:06:34;41.50;39.92;48.80;;
42701;Laerm;28316;49.504;8.526;2023-07-31T01:09:08;41.51;39.81;42.88;;
42701;Laerm;28316;49.504;8.526;2023-07-31T01:11:51;41.55;39.92;42.71;;
42701;Laerm;28316;49.504;8.526;2023-07-31T01:14:18;41.57;39.92;43.34;;
42701;Laerm;28316;49.504;8.526;2023-07-31T01:16:43;41.60;39.70;44.83;;
42701;Laerm;28316;49.504;8.526;2023-07-31T01:19:10;41.62;39.92;45.45;;
42701;Laerm;28316;49.504;8.526;2023-07-31T01:27:24;41.65;40.23;42.98;;
42701;Laerm;28316;49.504;8.526;2023-07-31T01:30:21;41.65;40.13;43.86;;
42701;Laerm;28316;49.504;8.526;2023-07-31T01:32:48;41.70;40.13;45.60;;
42701;Laerm;28316;49.504;8.526;2023-07-31T01:35:14;41.66;40.23;42.88;;
42701;Laerm;28316;49.504;8.526;2023-07-31T01:37:40;41.68;40.23;43.24;;
42701;Laerm;28316;49.504;8.526;2023-07-31T01:40:08;41.66;40.23;42.88;;
42701;Laerm;28316;49.504;8.526;2023-07-31T01:42:34;41.69;40.43;44.19;;
42701;Laerm;28316;49.504;8.526;2023-07-31T01:45:00;41.68;40.23;43.63;;
42701;Laerm;28316;49.504;8.526;2023-07-31T01:47:25;41.68;40.33;42.88;;
42701;Laerm;28316;49.504;8.526;2023-07-31T01:49:51;41.68;40.18;42.98;;
42701;Laerm;28316;49.504;8.526;2023-07-31T01:52:17;41.69;40.13;42.82;;
42701;Laerm;28316;49.504;8.526;2023-07-31T01:54:42;41.69;40.23;42.88;;
42701;Laerm;28316;49.504;8.526;2023-07-31T01:57:08;41.70;40.13;42.88;;
42701;Laerm;28316;49.504;8.526;2023-07-31T01:59:34;41.69;40.23;42.93;;
42701;Laerm;28316;49.504;8.526;2023-07-31T02:02:00;41.70;40.33;44.94;;
42701;Laerm;28316;49.504;8.526;2023-07-31T02:04:25;41.72;40.23;47.40;;
42701;Laerm;28316;49.504;8.526;2023-07-31T02:06:52;41.70;40.23;44.58;;
42701;Laerm;28316;49.504;8.526;2023-07-31T02:09:18;41.69;40.23;42.88;;
42701;Laerm;28316;49.504;8.526;2023-07-31T02:11:44;41.74;40.33;48.40;;
42701;Laerm;28316;49.504;8.526;2023-07-31T02:14:09;41.68;40.23;50.97;;
42701;Laerm;28316;49.504;8.526;2023-07-31T02:16:35;41.66;40.13;48.39;;
42701;Laerm;28316;49.504;8.526;2023-07-31T02:19:01;41.61;40.13;45.94;;
42701;Laerm;28316;49.504;8.526;2023-07-31T02:21:27;41.67;39.92;49.11;;
42701;Laerm;28316;49.504;8.526;2023-07-31T02:23:52;41.59;40.03;43.86;;
42701;Laerm;28316;49.504;8.526;2023-07-31T02:26:18;41.59;39.34;45.36;;
42701;Laerm;28316;49.504;8.526;2023-07-31T02:28:44;41.58;40.23;43.39;;
42701;Laerm;28316;49.504;8.526;2023-07-31T02:31:09;41.58;40.03;43.39;;
42701;Laerm;28316;49.504;8.526;2023-07-31T02:33:35;41.58;39.92;42.98;;
42701;Laerm;28316;49.504;8.526;2023-07-31T02:36:01;41.58;40.13;43.54;;
42701;Laerm;28316;49.504;8.526;2023-07-31T02:38:26;41.67;40.13;50.85;;
42701;Laerm;28316;49.504;8.526;2023-07-31T02:40:52;41.69;39.92;55.11;;
42701;Laerm;28316;49.504;8.526;2023-07-31T02:43:18;41.65;40.23;46.28;;
42701;Laerm;28316;49.504;8.526;2023-07-31T02:45:44;41.59;39.70;43.04;;
42701;Laerm;28316;49.504;8.526;2023-07-31T02:48:09;41.59;39.58;43.86;;
42701;Laerm;28316;49.504;8.526;2023-07-31T02:50:35;41.61;40.13;44.97;;
42701;Laerm;28316;49.504;8.526;2023-07-31T02:53:01;41.65;39.81;45.30;;
42701;Laerm;28316;49.504;8.526;2023-07-31T02:55:26;41.62;40.13;43.04;;
42701;Laerm;28316;49.504;8.526;2023-07-31T02:57:52;41.62;39.70;42.88;;
42701;Laerm;28316;49.504;8.526;2023-07-31T03:00:19;41.83;40.03;57.30;;
42701;Laerm;28316;49.504;8.526;2023-07-31T03:02:44;41.68;40.13;45.83;;
42701;Laerm;28316;49.504;8.526;2023-07-31T03:05:10;41.62;39.81;42.98;;
42701;Laerm;28316;49.504;8.526;2023-07-31T03:07:36;41.62;40.23;43.14;;
42701;Laerm;28316;49.504;8.526;2023-07-31T03:10:02;41.64;39.99;44.31;;
42701;Laerm;28316;49.504;8.526;2023-07-31T03:12:28;41.63;39.58;45.72;;
42701;Laerm;28316;49.504;8.526;2023-07-31T03:14:53;41.62;40.33;42.93;;
42701;Laerm;28316;49.504;8.526;2023-07-31T03:17:19;41.74;40.13;47.88;;
42701;Laerm;28316;49.504;8.526;2023-07-31T03:19:45;41.63;39.92;43.14;;
42701;Laerm;28316;49.504;8.526;2023-07-31T03:22:10;41.73;40.23;48.99;;
42701;Laerm;28316;49.504;8.526;2023-07-31T03:24:36;41.72;40.23;47.12;;
42701;Laerm;28316;49.504;8.526;2023-07-31T03:27:02;41.64;39.81;44.90;;
42701;Laerm;28316;49.504;8.526;2023-07-31T03:29:28;41.88;40.23;55.31;;
42701;Laerm;28316;49.504;8.526;2023-07-31T03:31:53;41.67;39.81;45.45;;
42701;Laerm;28316;49.504;8.526;2023-07-31T03:34:19;41.66;40.13;47.59;;
42701;Laerm;28316;49.504;8.526;2023-07-31T03:36:45;41.75;40.03;55.43;;
42701;Laerm;28316;49.504;8.526;2023-07-31T03:39:11;41.66;40.23;50.23;;
42701;Laerm;28316;49.504;8.526;2023-07-31T03:41:36;41.74;40.13;51.45;;
42701;Laerm;28316;49.504;8.526;2023-07-31T03:44:02;41.65;39.92;43.04;;
42701;Laerm;28316;49.504;8.526;2023-07-31T03:46:28;41.66;40.23;45.54;;
42701;Laerm;28316;49.504;8.526;2023-07-31T03:48:54;41.66;39.92;44.87;;
42701;Laerm;28316;49.504;8.526;2023-07-31T03:51:19;41.64;39.92;42.88;;
42701;Laerm;28316;49.504;8.526;2023-07-31T03:53:45;41.70;40.23;49.88;;
42701;Laerm;28316;49.504;8.526;2023-07-31T03:56:11;41.65;39.81;43.86;;
42701;Laerm;28316;49.504;8.526;2023-07-31T03:58:37;41.66;40.03;43.63;;
42701;Laerm;28316;49.504;8.526;2023-07-31T04:01:03;41.64;40.13;43.34;;
42701;Laerm;28316;49.504;8.526;2023-07-31T04:03:29;41.67;40.03;45.89;;
42701;Laerm;28316;49.504;8.526;2023-07-31T04:05:55;41.63;40.23;42.82;;
42701;Laerm;28316;49.504;8.526;2023-07-31T04:08:22;41.66;40.13;43.14;;
42701;Laerm;28316;49.504;8.526;2023-07-31T04:10:48;41.82;40.13;54.31;;
42701;Laerm;28316;49.504;8.526;2023-07-31T04:13:14;41.65;39.81;43.72;;
42701;Laerm;28316;49.504;8.526;2023-07-31T04:15:41;41.65;40.23;43.24;;
42701;Laerm;28316;49.504;8.526;2023-07-31T04:18:06;41.68;40.13;42.88;;
42701;Laerm;28316;49.504;8.526;2023-07-31T04:20:32;41.69;40.13;48.34;;
42701;Laerm;28316;49.504;8.526;2023-07-31T04:22:58;41.67;40.23;43.04;;
42701;Laerm;28316;49.504;8.526;2023-07-31T04:25:24;41.69;40.13;43.94;;
42701;Laerm;28316;49.504;8.526;2023-07-31T04:27:50;41.68;40.23;42.88;;
42701;Laerm;28316;49.504;8.526;2023-07-31T04:30:15;41.72;40.33;46.82;;
42701;Laerm;28316;49.504;8.526;2023-07-31T04:32:41;41.72;40.03;46.57;;
42701;Laerm;28316;49.504;8.526;2023-07-31T04:35:07;41.67;40.23;43.72;;
42701;Laerm;28316;49.504;8.526;2023-07-31T04:37:33;41.72;40.13;46.91;;
42701;Laerm;28316;49.504;8.526;2023-07-31T04:39:59;41.67;40.33;42.88;;
42701;Laerm;28316;49.504;8.526;2023-07-31T04:42:25;41.69;40.03;45.39;;
42701;Laerm;28316;49.504;8.526;2023-07-31T04:44:50;41.75;40.13;49.75;;
42701;Laerm;28316;49.504;8.526;2023-07-31T04:47:18;41.68;39.81;43.14;;
42701;Laerm;28316;49.504;8.526;2023-07-31T04:49:44;41.69;40.23;43.49;;
42701;Laerm;28316;49.504;8.526;2023-07-31T04:52:10;41.67;40.23;42.93;;
42701;Laerm;28316;49.504;8.526;2023-07-31T04:54:36;41.68;40.13;44.69;;
42701;Laerm;28316;49.504;8.526;2023-07-31T04:57:02;41.67;40.23;46.59;;
42701;Laerm;28316;49.504;8.526;2023-07-31T04:59:27;41.66;40.23;43.04;;
42701;Laerm;28316;49.504;8.526;2023-07-31T05:01:53;41.83;40.03;55.36;;
42701;Laerm;28316;49.504;8.526;2023-07-31T05:04:19;41.64;39.92;42.88;;
42701;Laerm;28316;49.504;8.526;2023-07-31T05:06:45;41.67;40.13;47.48;;
42701;Laerm;28316;49.504;8.526;2023-07-31T05:09:10;41.97;40.03;53.46;;
42701;Laerm;28316;49.504;8.526;2023-07-31T05:11:36;41.70;39.58;49.32;;
42701;Laerm;28316;49.504;8.526;2023-07-31T05:14:02;41.63;40.13;44.73;;
42701;Laerm;28316;49.504;8.526;2023-07-31T05:16:27;41.60;40.13;44.35;;
42701;Laerm;28316;49.504;8.526;2023-07-31T05:18:53;41.82;39.92;53.75;;
42701;Laerm;28316;49.504;8.526;2023-07-31T05:21:19;41.61;39.81;44.27;;
42701;Laerm;28316;49.504;8.526;2023-07-31T05:23:44;41.86;40.13;53.87;;
42701;Laerm;28316;49.504;8.526;2023-07-31T05:26:10;41.58;40.03;42.88;;
42701;Laerm;28316;49.504;8.526;2023-07-31T05:28:36;41.61;39.81;44.23;;
42701;Laerm;28316;49.504;8.526;2023-07-31T05:31:04;41.64;39.92;45.89;;
42701;Laerm;28316;49.504;8.526;2023-07-31T05:33:30;41.65;39.58;50.46;;
42701;Laerm;28316;49.504;8.526;2023-07-31T05:35:56;41.61;40.03;45.54;;
42701;Laerm;28316;49.504;8.526;2023-07-31T05:38:22;41.63;40.03;46.07;;
42701;Laerm;28316;49.504;8.526;2023-07-31T05:40:48;41.60;40.03;43.14;;
42701;Laerm;28316;49.504;8.526;2023-07-31T05:43:14;41.59;39.92;43.04;;
42701;Laerm;28316;49.504;8.526;2023-07-31T05:45:42;41.58;40.13;43.77;;
42701;Laerm;28316;49.504;8.526;2023-07-31T05:48:08;41.63;39.81;47.36;;
42701;Laerm;28316;49.504;8.526;2023-07-31T05:50:33;41.75;39.92;52.93;;
42701;Laerm;28316;49.504;8.526;2023-07-31T05:52:59;41.59;40.03;44.23;;
42701;Laerm;28316;49.504;8.526;2023-07-31T05:55:25;41.67;39.92;54.55;;
42701;Laerm;28316;49.504;8.526;2023-07-31T05:57:54;41.59;40.03;46.30;;
42701;Laerm;28316;49.504;8.526;2023-07-31T06:00:20;41.57;39.92;45.07;;
42701;Laerm;28316;49.504;8.526;2023-07-31T06:02:49;41.55;40.03;43.54;;
42701;Laerm;28316;49.504;8.526;2023-07-31T06:05:15;41.57;40.03;50.36;;
42701;Laerm;28316;49.504;8.526;2023-07-31T06:07:40;41.57;39.92;43.19;;
42701;Laerm;28316;49.504;8.526;2023-07-31T06:10:07;41.57;39.89;44.19;;
42701;Laerm;28316;49.504;8.526;2023-07-31T06:12:34;41.56;40.13;42.71;;
42701;Laerm;28316;49.504;8.526;2023-07-31T06:15:02;41.59;40.13;49.50;;
42701;Laerm;28316;49.504;8.526;2023-07-31T06:17:28;41.58;40.03;47.44;;
42701;Laerm;28316;49.504;8.526;2023-07-31T06:19:56;41.53;40.03;43.90;;
42701;Laerm;28316;49.504;8.526;2023-07-31T06:22:22;41.52;39.92;42.65;;
42701;Laerm;28316;49.504;8.526;2023-07-31T06:24:48;41.54;40.03;42.95;;
42701;Laerm;28316;49.504;8.526;2023-07-31T06:27:13;41.56;39.92;50.45;;
42701;Laerm;28316;49.504;8.526;2023-07-31T06:29:39;41.54;40.13;45.27;;
42701;Laerm;28316;49.504;8.526;2023-07-31T06:32:05;41.58;40.03;50.84;;
42701;Laerm;28316;49.504;8.526;2023-07-31T06:34:31;41.57;40.13;46.62;;
42701;Laerm;28316;49.504;8.526;2023-07-31T06:36:57;41.61;40.03;46.25;;
42701;Laerm;28316;49.504;8.526;2023-07-31T06:39:22;41.56;40.13;44.15;;
42701;Laerm;28316;49.504;8.526;2023-07-31T06:41:48;41.68;39.58;53.38;;
42701;Laerm;28316;49.504;8.526;2023-07-31T06:44:14;41.69;39.92;52.98;;
42701;Laerm;28316;49.504;8.526;2023-07-31T06:46:40;41.63;40.23;45.89;;
42701;Laerm;28316;49.504;8.526;2023-07-31T06:49:06;41.61;40.03;47.79;;
42701;Laerm;28316;49.504;8.526;2023-07-31T06:51:31;41.65;40.13;52.11;;
42701;Laerm;28316;49.504;8.526;2023-07-31T06:54:00;41.64;40.03;46.73;;
42701;Laerm;28316;49.504;8.526;2023-07-31T06:56:25;41.80;39.81;54.17;;
42701;Laerm;28316;49.504;8.526;2023-07-31T06:58:51;41.63;39.92;47.48;;
42701;Laerm;28316;49.504;8.526;2023-07-31T07:01:17;41.65;39.92;48.32;;
42701;Laerm;28316;49.504;8.526;2023-07-31T07:03:43;41.68;40.13;51.64;;
42701;Laerm;28316;49.504;8.526;2023-07-31T07:06:08;41.70;40.03;52.69;;
42701;Laerm;28316;49.504;8.526;2023-07-31T07:08:34;41.60;40.13;43.49;;
42701;Laerm;28316;49.504;8.526;2023-07-31T07:11:00;41.62;39.92;42.98;;
42701;Laerm;28316;49.504;8.526;2023-07-31T07:13:26;41.63;40.33;43.68;;
42701;Laerm;28316;49.504;8.526;2023-07-31T07:15:51;42.11;40.13;55.58;;
42701;Laerm;28316;49.504;8.526;2023-07-31T07:18:18;41.69;40.23;46.52;;
42701;Laerm;28316;49.504;8.526;2023-07-31T07:20:51;41.64;40.03;48.95;;
42701;Laerm;28316;49.504;8.526;2023-07-31T07:23:17;41.64;39.46;52.90;;
42701;Laerm;28316;49.504;8.526;2023-07-31T07:25:45;41.50;39.92;44.15;;
42701;Laerm;28316;49.504;8.526;2023-07-31T07:28:11;42.39;40.03;59.73;;
42701;Laerm;28316;49.504;8.526;2023-07-31T07:30:37;42.02;39.92;59.83;;
42701;Laerm;28316;49.504;8.526;2023-07-31T07:33:03;41.50;39.70;49.80;;
42701;Laerm;28316;49.504;8.526;2023-07-31T07:35:28;41.71;39.92;49.02;;
42701;Laerm;28316;49.504;8.526;2023-07-31T07:37:55;42.51;39.70;58.26;;
42701;Laerm;28316;49.504;8.526;2023-07-31T07:40:21;41.75;39.81;54.12;;
42701;Laerm;28316;49.504;8.526;2023-07-31T07:42:47;41.49;39.81;46.87;;
42701;Laerm;28316;49.504;8.526;2023-07-31T07:45:13;41.47;39.92;48.52;;
42701;Laerm;28316;49.504;8.526;2023-07-31T07:47:40;41.46;39.70;46.43;;
42701;Laerm;28316;49.504;8.526;2023-07-31T07:50:07;41.44;39.46;45.07;;
42701;Laerm;28316;49.504;8.526;2023-07-31T07:52:33;41.50;39.92;46.80;;
42701;Laerm;28316;49.504;8.526;2023-07-31T07:54:58;41.56;39.81;53.56;;
42701;Laerm;28316;49.504;8.526;2023-07-31T07:57:26;41.54;39.92;49.52;;
42701;Laerm;28316;49.504;8.526;2023-07-31T07:59:52;42.12;39.81;58.81;;
42701;Laerm;28316;49.504;8.526;2023-07-31T08:02:18;41.47;39.46;47.68;;
42701;Laerm;28316;49.504;8.526;2023-07-31T08:04:43;41.52;39.58;49.81;;
42701;Laerm;28316;49.504;8.526;2023-07-31T08:07:12;41.38;39.58;44.73;;
42701;Laerm;28316;49.504;8.526;2023-07-31T08:09:38;41.48;39.70;47.46;;
42701;Laerm;28316;49.504;8.526;2023-07-31T08:12:05;42.20;39.81;57.43;;
42701;Laerm;28316;49.504;8.526;2023-07-31T08:14:31;41.61;39.81;51.17;;
42701;Laerm;28316;49.504;8.526;2023-07-31T08:16:57;42.11;39.58;59.64;;
42701;Laerm;28316;49.504;8.526;2023-07-31T08:19:23;41.40;39.34;45.97;;
42701;Laerm;28316;49.504;8.526;2023-07-31T08:21:49;41.78;39.34;53.73;;
42701;Laerm;28316;49.504;8.526;2023-07-31T08:24:14;42.40;39.34;61.08;;
42701;Laerm;28316;49.504;8.526;2023-07-31T08:26:40;41.99;39.08;60.01;;
42701;Laerm;28316;49.504;8.526;2023-07-31T08:29:06;43.48;39.34;65.10;;
42701;Laerm;28316;49.504;8.526;2023-07-31T08:31:32;42.79;39.58;60.50;;
42701;Laerm;28316;49.504;8.526;2023-07-31T08:33:58;41.63;39.08;56.21;;
42701;Laerm;28316;49.504;8.526;2023-07-31T08:36:24;43.42;39.34;64.52;;
42701;Laerm;28316;49.504;8.526;2023-07-31T08:38:49;41.27;39.58;43.54;;
42701;Laerm;28316;49.504;8.526;2023-07-31T08:41:18;42.17;39.46;62.64;;
42701;Laerm;28316;49.504;8.526;2023-07-31T08:43:49;43.70;39.21;62.46;;
42701;Laerm;28316;49.504;8.526;2023-07-31T08:46:15;42.10;39.46;63.25;;
42701;Laerm;28316;49.504;8.526;2023-07-31T08:48:42;41.84;38.95;58.31;;
42701;Laerm;28316;49.504;8.526;2023-07-31T08:51:08;41.26;39.08;46.02;;
42701;Laerm;28316;49.504;8.526;2023-07-31T08:53:35;41.57;39.08;56.51;;
42701;Laerm;28316;49.504;8.526;2023-07-31T08:56:00;43.58;39.08;63.28;;
42701;Laerm;28316;49.504;8.526;2023-07-31T08:58:32;42.88;39.08;61.21;;
42701;Laerm;28316;49.504;8.526;2023-07-31T09:01:01;41.13;39.21;45.77;;
42701;Laerm;28316;49.504;8.526;2023-07-31T09:03:28;41.36;38.95;53.44;;
42701;Laerm;28316;49.504;8.526;2023-07-31T09:05:58;42.17;38.67;61.21;;
42701;Laerm;28316;49.504;8.526;2023-07-31T09:08:27;41.31;39.34;50.72;;
42701;Laerm;28316;49.504;8.526;2023-07-31T09:11:00;44.89;39.46;63.75;;
42701;Laerm;28316;49.504;8.526;2023-07-31T09:13:30;41.21;38.67;48.55;;
42701;Laerm;28316;49.504;8.526;2023-07-31T09:15:56;42.45;39.21;60.40;;
42701;Laerm;28316;49.504;8.526;2023-07-31T09:18:23;41.77;39.21;56.22;;
42701;Laerm;28316;49.504;8.526;2023-07-31T09:21:02;41.92;39.08;56.49;;
42701;Laerm;28316;49.504;8.526;2023-07-31T09:23:44;41.89;38.60;62.46;;
42701;Laerm;28316;49.504;8.526;2023-07-31T09:26:10;41.77;38.87;55.60;;
42701;Laerm;28316;49.504;8.526;2023-07-31T09:28:37;42.42;38.37;58.03;;
42701;Laerm;28316;49.504;8.526;2023-07-31T09:31:02;42.91;38.52;60.92;;
42701;Laerm;28316;49.504;8.526;2023-07-31T09:33:28;43.78;38.95;67.46;;
42701;Laerm;28316;49.504;8.526;2023-07-31T09:35:54;41.72;38.87;57.34;;
42701;Laerm;28316;49.504;8.526;2023-07-31T09:38:19;42.68;39.08;61.80;;
42701;Laerm;28316;49.504;8.526;2023-07-31T09:40:48;43.14;39.21;59.22;;
42701;Laerm;28316;49.504;8.526;2023-07-31T09:43:19;41.21;38.52;51.24;;
42701;Laerm;28316;49.504;8.526;2023-07-31T09:45:46;41.38;38.67;54.07;;
42701;Laerm;28316;49.504;8.526;2023-07-31T09:48:17;42.28;38.81;60.13;;
42701;Laerm;28316;49.504;8.526;2023-07-31T09:50:47;41.59;38.67;57.55;;
42701;Laerm;28316;49.504;8.526;2023-07-31T09:53:13;41.70;38.67;54.59;;
42701;Laerm;28316;49.504;8.526;2023-07-31T09:55:41;40.88;37.70;43.39;;
42701;Laerm;28316;49.504;8.526;2023-07-31T09:58:09;41.35;38.81;57.13;;
42701;Laerm;28316;49.504;8.526;2023-07-31T10:00:36;41.44;39.34;58.84;;
42701;Laerm;28316;49.504;8.526;2023-07-31T10:03:08;41.17;39.08;52.07;;
42701;Laerm;28316;49.504;8.526;2023-07-31T10:05:40;45.70;38.67;68.06;;
42701;Laerm;28316;49.504;8.526;2023-07-31T10:08:09;43.77;38.95;65.98;;
42701;Laerm;28316;49.504;8.526;2023-07-31T10:10:44;41.66;38.52;59.81;;
42701;Laerm;28316;49.504;8.526;2023-07-31T10:13:14;41.37;38.81;60.00;;
42701;Laerm;28316;49.504;8.526;2023-07-31T10:15:41;43.83;38.81;65.89;;
42701;Laerm;28316;49.504;8.526;2023-07-31T10:18:09;41.91;38.52;56.40;;
42701;Laerm;28316;49.504;8.526;2023-07-31T10:20:35;41.80;38.81;56.89;;
42701;Laerm;28316;49.504;8.526;2023-07-31T10:23:02;41.02;38.81;52.06;;
42701;Laerm;28316;49.504;8.526;2023-07-31T10:25:30;40.93;38.21;46.43;;
42701;Laerm;28316;49.504;8.526;2023-07-31T10:27:57;41.08;38.67;52.21;;
42701;Laerm;28316;49.504;8.526;2023-07-31T10:30:27;41.06;38.37;49.74;;
42701;Laerm;28316;49.504;8.526;2023-07-31T10:32:55;41.54;38.52;55.93;;
42701;Laerm;28316;49.504;8.526;2023-07-31T10:35:21;41.70;38.52;65.97;;
42701;Laerm;28316;49.504;8.526;2023-07-31T10:37:52;41.45;38.52;60.78;;
42701;Laerm;28316;49.504;8.526;2023-07-31T10:40:23;41.81;38.37;58.66;;
42701;Laerm;28316;49.504;8.526;2023-07-31T10:42:56;43.63;38.67;63.28;;
42701;Laerm;28316;49.504;8.526;2023-07-31T10:45:42;41.56;37.88;57.15;;
42701;Laerm;28316;49.504;8.526;2023-07-31T10:48:16;43.30;38.52;61.89;;
42701;Laerm;28316;49.504;8.526;2023-07-31T10:50:55;41.03;38.05;54.42;;
42701;Laerm;28316;49.504;8.526;2023-07-31T10:53:32;44.48;38.52;65.05;;
42701;Laerm;28316;49.504;8.526;2023-07-31T10:56:04;44.73;38.52;64.74;;
42701;Laerm;28316;49.504;8.526;2023-07-31T10:58:31;41.66;38.05;58.26;;
42701;Laerm;28316;49.504;8.526;2023-07-31T11:01:03;40.86;38.67;49.77;;
42701;Laerm;28316;49.504;8.526;2023-07-31T11:03:45;46.07;38.37;68.30;;
42701;Laerm;28316;49.504;8.526;2023-07-31T11:06:11;42.92;38.37;58.53;;
42701;Laerm;28316;49.504;8.526;2023-07-31T11:08:48;41.28;38.02;59.57;;
42701;Laerm;28316;49.504;8.526;2023-07-31T11:11:19;40.99;37.70;54.81;;
42701;Laerm;28316;49.504;8.526;2023-07-31T11:13:50;41.31;38.37;59.67;;
42701;Laerm;28316;49.504;8.526;2023-07-31T11:16:20;42.24;38.52;61.65;;
42701;Laerm;28316;49.504;8.526;2023-07-31T11:18:48;42.60;37.88;62.09;;
42701;Laerm;28316;49.504;8.526;2023-07-31T11:21:23;40.68;38.52;46.71;;
42701;Laerm;28316;49.504;8.526;2023-07-31T11:23:52;42.88;38.37;64.56;;
42701;Laerm;28316;49.504;8.526;2023-07-31T11:26:19;41.73;38.21;61.35;;
42701;Laerm;28316;49.504;8.526;2023-07-31T11:28:49;45.72;38.21;65.40;;
42701;Laerm;28316;49.504;8.526;2023-07-31T11:31:16;43.80;38.52;65.47;;
42701;Laerm;28316;49.504;8.526;2023-07-31T11:33:42;41.57;38.52;59.12;;
42701;Laerm;28316;49.504;8.526;2023-07-31T11:36:18;41.40;38.37;54.20;;
42701;Laerm;28316;49.504;8.526;2023-07-31T11:38:45;40.68;38.21;44.19;;
42701;Laerm;28316;49.504;8.526;2023-07-31T11:41:14;41.27;38.81;55.84;;
42701;Laerm;28316;49.504;8.526;2023-07-31T11:43:42;41.68;38.81;57.42;;
42701;Laerm;28316;49.504;8.526;2023-07-31T11:46:08;41.19;38.37;56.54;;
42701;Laerm;28316;49.504;8.526;2023-07-31T11:48:37;40.85;38.81;48.25;;
42701;Laerm;28316;49.504;8.526;2023-07-31T11:51:10;40.86;37.88;48.46;;
42701;Laerm;28316;49.504;8.526;2023-07-31T11:53:57;42.49;38.52;65.98;;
42701;Laerm;28316;49.504;8.526;2023-07-31T11:56:24;41.03;38.67;54.80;;
42701;Laerm;28316;49.504;8.526;2023-07-31T11:58:59;41.22;38.67;55.98;;
42701;Laerm;28316;49.504;8.526;2023-07-31T12:01:28;41.82;38.52;58.38;;
42701;Laerm;28316;49.504;8.526;2023-07-31T12:03:54;41.10;38.81;52.64;;
42701;Laerm;28316;49.504;8.526;2023-07-31T12:06:21;41.29;38.52;58.28;;
42701;Laerm;28316;49.504;8.526;2023-07-31T12:08:48;42.23;38.95;58.99;;
42701;Laerm;28316;49.504;8.526;2023-07-31T12:11:14;41.41;38.05;55.56;;
42701;Laerm;28316;49.504;8.526;2023-07-31T12:13:41;41.45;38.81;62.43;;
42701;Laerm;28316;49.504;8.526;2023-07-31T12:16:07;41.28;38.37;58.12;;
42701;Laerm;28316;49.504;8.526;2023-07-31T12:18:37;40.79;38.21;49.15;;
42701;Laerm;28316;49.504;8.526;2023-07-31T12:21:07;43.42;38.67;65.27;;
42701;Laerm;28316;49.504;8.526;2023-07-31T12:23:36;40.76;38.52;52.69;;
42701;Laerm;28316;49.504;8.526;2023-07-31T12:26:13;41.45;38.52;57.36;;
42701;Laerm;28316;49.504;8.526;2023-07-31T12:28:48;41.28;38.67;57.04;;
42701;Laerm;28316;49.504;8.526;2023-07-31T12:31:20;41.21;38.52;56.83;;
42701;Laerm;28316;49.504;8.526;2023-07-31T12:33:48;40.85;38.21;48.16;;
42701;Laerm;28316;49.504;8.526;2023-07-31T12:36:22;41.47;38.37;59.40;;
42701;Laerm;28316;49.504;8.526;2023-07-31T12:38:48;42.01;38.21;57.83;;
42701;Laerm;28316;49.504;8.526;2023-07-31T12:41:15;41.04;38.37;51.49;;
42701;Laerm;28316;49.504;8.526;2023-07-31T12:43:42;40.84;38.52;47.74;;
42701;Laerm;28316;49.504;8.526;2023-07-31T12:46:08;41.78;38.21;59.06;;
42701;Laerm;28316;49.504;8.526;2023-07-31T12:48:35;41.16;38.37;50.16;;
42701;Laerm;28316;49.504;8.526;2023-07-31T12:51:01;42.17;38.52;56.99;;
42701;Laerm;28316;49.504;8.526;2023-07-31T12:53:27;42.14;38.67;58.09;;
42701;Laerm;28316;49.504;8.526;2023-07-31T12:55:57;40.91;38.52;53.14;;
42701;Laerm;28316;49.504;8.526;2023-07-31T12:58:23;41.85;38.21;60.30;;
42701;Laerm;28316;49.504;8.526;2023-07-31T13:00:49;40.69;38.37;51.00;;
42701;Laerm;28316;49.504;8.526;2023-07-31T13:03:15;41.03;38.52;51.14;;
42701;Laerm;28316;49.504;8.526;2023-07-31T13:05:41;40.82;38.21;52.46;;
42701;Laerm;28316;49.504;8.526;2023-07-31T13:08:07;40.57;37.88;48.71;;
42701;Laerm;28316;49.504;8.526;2023-07-31T13:10:33;40.77;37.87;53.89;;
42701;Laerm;28316;49.504;8.526;2023-07-31T13:12:58;40.69;38.21;51.86;;
42701;Laerm;28316;49.504;8.526;2023-07-31T13:15:24;40.96;38.02;55.01;;
42701;Laerm;28316;49.504;8.526;2023-07-31T13:17:50;40.88;37.88;52.17;;
42701;Laerm;28316;49.504;8.526;2023-07-31T13:20:15;41.98;37.70;64.72;;
42701;Laerm;28316;49.504;8.526;2023-07-31T13:22:41;41.06;37.88;57.30;;
42701;Laerm;28316;49.504;8.526;2023-07-31T13:25:07;40.51;38.05;44.15;;
42701;Laerm;28316;49.504;8.526;2023-07-31T13:27:35;40.55;38.05;47.81;;
42701;Laerm;28316;49.504;8.526;2023-07-31T13:30:01;41.34;37.70;57.60;;
42701;Laerm;28316;49.504;8.526;2023-07-31T13:32:27;43.92;38.37;67.13;;
42701;Laerm;28316;49.504;8.526;2023-07-31T13:34:52;42.16;38.05;61.51;;
42701;Laerm;28316;49.504;8.526;2023-07-31T13:37:18;41.41;38.21;56.30;;
42701;Laerm;28316;49.504;8.526;2023-07-31T13:39:44;41.92;38.05;59.75;;
42701;Laerm;28316;49.504;8.526;2023-07-31T13:42:10;41.99;38.37;59.00;;
42701;Laerm;28316;49.504;8.526;2023-07-31T13:44:39;41.46;38.52;54.92;;
42701;Laerm;28316;49.504;8.526;2023-07-31T13:47:05;40.67;38.52;44.83;;
42701;Laerm;28316;49.504;8.526;2023-07-31T13:49:33;40.83;38.05;52.75;;